sensor_id;sensor_type;location;lat;lon;timestamp;pressure;altitude;pressure_sealevel;temperature;humidity
70902;BME280;58548;47.210;8.618;2022-10-16T00:01:27;94162.28;;;21.71;44.41
70902;BME280;58548;47.210;8.618;2022-10-16T00:03:57;94157.41;;;21.58;44.54
70902;BME280;58548;47.210;8.618;2022-10-16T00:06:27;94140.38;;;21.53;44.36
70902;BME280;58548;47.210;8.618;2022-10-16T00:08:56;94167.03;;;21.64;44.26
70902;BME280;58548;47.210;8.618;2022-10-16T00:11:28;94148.69;;;21.62;44.16
70902;BME280;58548;47.210;8.618;2022-10-16T00:13:57;94134.75;;;21.45;43.98
70902;BME280;58548;47.210;8.618;2022-10-16T00:16:25;94142.00;;;21.60;44.29
70902;BME280;58548;47.210;8.618;2022-10-16T00:18:51;94160.97;;;21.68;44.18
70902;BME280;58548;47.210;8.618;2022-10-16T00:21:24;94116.34;;;21.33;44.13
70902;BME280;58548;47.210;8.618;2022-10-16T00:23:55;94112.09;;;21.32;44.27
70902;BME280;58548;47.210;8.618;2022-10-16T00:26:21;94112.19;;;21.47;43.93
70902;BME280;58548;47.210;8.618;2022-10-16T00:28:52;94114.56;;;21.44;44.20
70902;BME280;58548;47.210;8.618;2022-10-16T00:31:22;94143.09;;;21.64;44.31
70902;BME280;58548;47.210;8.618;2022-10-16T00:33:49;94149.56;;;21.73;44.02
70902;BME280;58548;47.210;8.618;2022-10-16T00:36:22;94153.84;;;21.79;43.90
70902;BME280;58548;47.210;8.618;2022-10-16T00:38:55;94114.84;;;21.47;44.02
70902;BME280;58548;47.210;8.618;2022-10-16T00:41:27;94169.78;;;21.84;43.82
70902;BME280;58548;47.210;8.618;2022-10-16T00:43:58;94162.88;;;21.78;43.73
70902;BME280;58548;47.210;8.618;2022-10-16T00:46:42;94150.88;;;21.71;44.04
70902;BME280;58548;47.210;8.618;2022-10-16T00:49:14;94163.63;;;21.74;43.93
70902;BME280;58548;47.210;8.618;2022-10-16T00:51:49;94108.16;;;21.39;44.08
70902;BME280;58548;47.210;8.618;2022-10-16T00:54:22;94121.72;;;21.43;44.08
70902;BME280;58548;47.210;8.618;2022-10-16T00:56:49;94127.06;;;21.48;43.84
70902;BME280;58548;47.210;8.618;2022-10-16T00:59:30;94168.66;;;21.70;43.93
70902;BME280;58548;47.210;8.618;2022-10-16T01:01:57;94125.97;;;21.44;43.78
70902;BME280;58548;47.210;8.618;2022-10-16T01:04:32;94182.81;;;21.81;43.86
70902;BME280;58548;47.210;8.618;2022-10-16T01:09:57;94196.28;;;21.69;44.13
70902;BME280;58548;47.210;8.618;2022-10-16T01:15:41;94180.34;;;21.69;44.18
70902;BME280;58548;47.210;8.618;2022-10-16T01:18:18;94080.81;;;21.01;44.10
70902;BME280;58548;47.210;8.618;2022-10-16T01:20:56;94165.44;;;21.63;43.80
70902;BME280;58548;47.210;8.618;2022-10-16T01:29:39;94178.75;;;21.68;43.46
70902;BME280;58548;47.210;8.618;2022-10-16T01:31:50;94165.44;;;21.63;43.64
70902;BME280;58548;47.210;8.618;2022-10-16T01:34:46;94186.47;;;21.69;43.48
70902;BME280;58548;47.210;8.618;2022-10-16T01:37:20;94182.47;;;21.67;43.64
70902;BME280;58548;47.210;8.618;2022-10-16T01:39:50;94151.44;;;21.40;43.36
70902;BME280;58548;47.210;8.618;2022-10-16T01:42:25;94192.81;;;21.63;43.64
70902;BME280;58548;47.210;8.618;2022-10-16T01:44:59;94181.88;;;21.60;43.32
70902;BME280;58548;47.210;8.618;2022-10-16T01:47:31;94142.88;;;21.28;43.63
70902;BME280;58548;47.210;8.618;2022-10-16T01:49:59;94188.19;;;21.53;43.35
70902;BME280;58548;47.210;8.618;2022-10-16T01:52:29;94166.81;;;21.33;43.40
70902;BME280;58548;47.210;8.618;2022-10-16T01:55:02;94199.84;;;21.47;43.52
70902;BME280;58548;47.210;8.618;2022-10-16T01:57:39;94158.75;;;21.17;43.23
70902;BME280;58548;47.210;8.618;2022-10-16T02:00:11;94130.94;;;20.98;43.32
70902;BME280;58548;47.210;8.618;2022-10-16T02:02:45;94192.88;;;21.36;43.63
70902;BME280;58548;47.210;8.618;2022-10-16T02:07:38;94172.47;;;21.09;43.77
70902;BME280;58548;47.210;8.618;2022-10-16T02:10:09;94201.00;;;21.24;43.14
70902;BME280;58548;47.210;8.618;2022-10-16T02:12:40;94187.84;;;21.07;43.10
70902;BME280;58548;47.210;8.618;2022-10-16T02:15:08;94068.19;;;20.21;43.61
70902;BME280;58548;47.210;8.618;2022-10-16T02:17:34;94192.56;;;21.00;43.64
70902;BME280;58548;47.210;8.618;2022-10-16T02:20:06;94190.72;;;21.00;43.55
70902;BME280;58548;47.210;8.618;2022-10-16T02:22:37;94191.97;;;20.92;43.53
70902;BME280;58548;47.210;8.618;2022-10-16T02:25:22;94199.72;;;20.99;43.34
70902;BME280;58548;47.210;8.618;2022-10-16T02:27:58;94194.38;;;20.94;43.55
70902;BME280;58548;47.210;8.618;2022-10-16T02:30:36;94198.34;;;20.91;43.88
70902;BME280;58548;47.210;8.618;2022-10-16T02:33:11;94192.97;;;20.86;43.63
70902;BME280;58548;47.210;8.618;2022-10-16T02:35:41;94192.44;;;20.84;43.69
70902;BME280;58548;47.210;8.618;2022-10-16T02:38:10;94156.56;;;20.54;43.26
70902;BME280;58548;47.210;8.618;2022-10-16T02:40:37;94197.28;;;20.70;43.73
70902;BME280;58548;47.210;8.618;2022-10-16T02:43:04;94204.41;;;20.64;43.07
70902;BME280;58548;47.210;8.618;2022-10-16T02:45:33;94200.09;;;20.58;43.49
70902;BME280;58548;47.210;8.618;2022-10-16T02:47:59;94181.38;;;20.43;44.04
70902;BME280;58548;47.210;8.618;2022-10-16T02:50:27;94146.56;;;20.12;43.79
70902;BME280;58548;47.210;8.618;2022-10-16T02:52:53;94147.00;;;20.03;43.47
70902;BME280;58548;47.210;8.618;2022-10-16T02:55:23;94198.78;;;20.33;43.85
70902;BME280;58548;47.210;8.618;2022-10-16T02:57:53;94194.47;;;20.27;43.83
70902;BME280;58548;47.210;8.618;2022-10-16T03:00:20;94203.88;;;20.18;43.51
70902;BME280;58548;47.210;8.618;2022-10-16T03:02:50;94190.03;;;20.11;43.23
70902;BME280;58548;47.210;8.618;2022-10-16T03:05:19;94136.59;;;19.80;43.85
70902;BME280;58548;47.210;8.618;2022-10-16T03:07:45;94176.72;;;20.06;43.61
70902;BME280;58548;47.210;8.618;2022-10-16T03:10:11;94188.78;;;19.96;43.75
70902;BME280;58548;47.210;8.618;2022-10-16T03:12:37;94173.69;;;19.80;43.99
70902;BME280;58548;47.210;8.618;2022-10-16T03:15:05;94179.81;;;19.80;43.84
70902;BME280;58548;47.210;8.618;2022-10-16T03:17:35;94145.19;;;19.48;44.32
70902;BME280;58548;47.210;8.618;2022-10-16T03:20:02;94194.03;;;19.91;44.01
70902;BME280;58548;47.210;8.618;2022-10-16T03:22:31;94139.91;;;19.48;44.32
70902;BME280;58548;47.210;8.618;2022-10-16T03:25:02;94137.72;;;19.44;44.80
70902;BME280;58548;47.210;8.618;2022-10-16T03:27:28;94184.16;;;19.69;45.33
70902;BME280;58548;47.210;8.618;2022-10-16T03:29:58;94177.19;;;19.63;45.47
70902;BME280;58548;47.210;8.618;2022-10-16T03:32:27;94176.63;;;19.61;45.76
70902;BME280;58548;47.210;8.618;2022-10-16T03:34:57;94147.22;;;19.40;45.74
70902;BME280;58548;47.210;8.618;2022-10-16T03:37:28;94148.25;;;19.39;45.14
70902;BME280;58548;47.210;8.618;2022-10-16T03:39:54;94207.28;;;19.74;45.07
70902;BME280;58548;47.210;8.618;2022-10-16T03:42:22;94219.78;;;19.79;45.78
70902;BME280;58548;47.210;8.618;2022-10-16T03:44:50;94229.09;;;19.81;45.42
70902;BME280;58548;47.210;8.618;2022-10-16T03:47:18;94222.50;;;19.84;45.36
70902;BME280;58548;47.210;8.618;2022-10-16T03:49:49;94212.56;;;19.74;44.91
70902;BME280;58548;47.210;8.618;2022-10-16T03:52:16;94218.47;;;19.81;44.75
70902;BME280;58548;47.210;8.618;2022-10-16T03:54:42;94173.28;;;19.49;44.80
70902;BME280;58548;47.210;8.618;2022-10-16T03:57:08;94221.69;;;19.83;44.83
70902;BME280;58548;47.210;8.618;2022-10-16T03:59:34;94225.56;;;19.93;44.99
70902;BME280;58548;47.210;8.618;2022-10-16T04:02:00;94220.28;;;19.93;44.88
70902;BME280;58548;47.210;8.618;2022-10-16T04:04:26;94229.34;;;19.97;44.73
70902;BME280;58548;47.210;8.618;2022-10-16T04:06:54;94213.19;;;19.98;44.76
70902;BME280;58548;47.210;8.618;2022-10-16T04:09:22;94228.19;;;20.10;45.39
70902;BME280;58548;47.210;8.618;2022-10-16T04:11:48;94172.09;;;19.79;45.07
70902;BME280;58548;47.210;8.618;2022-10-16T04:14:14;94174.91;;;19.89;44.93
70902;BME280;58548;47.210;8.618;2022-10-16T04:16:42;94227.75;;;20.18;45.47
70902;BME280;58548;47.210;8.618;2022-10-16T04:19:09;94205.38;;;20.09;44.98
70902;BME280;58548;47.210;8.618;2022-10-16T04:21:36;94176.53;;;19.90;45.05
70902;BME280;58548;47.210;8.618;2022-10-16T04:24:05;94174.28;;;20.04;45.10
70902;BME280;58548;47.210;8.618;2022-10-16T04:26:30;94185.22;;;20.08;44.78
70902;BME280;58548;47.210;8.618;2022-10-16T04:28:59;94183.13;;;20.10;44.89
70902;BME280;58548;47.210;8.618;2022-10-16T04:31:29;94189.00;;;20.12;44.61
70902;BME280;58548;47.210;8.618;2022-10-16T04:33:58;94190.31;;;20.14;45.02
70902;BME280;58548;47.210;8.618;2022-10-16T04:36:24;94174.72;;;20.18;44.58
70902;BME280;58548;47.210;8.618;2022-10-16T04:38:52;94182.44;;;20.19;44.87
70902;BME280;58548;47.210;8.618;2022-10-16T04:41:20;94194.94;;;20.24;44.78
70902;BME280;58548;47.210;8.618;2022-10-16T04:43:46;94252.59;;;20.56;44.50
70902;BME280;58548;47.210;8.618;2022-10-16T04:46:12;94201.03;;;20.25;44.77
70902;BME280;58548;47.210;8.618;2022-10-16T04:48:38;94224.84;;;20.42;44.66
70902;BME280;58548;47.210;8.618;2022-10-16T04:51:04;94256.00;;;20.74;44.06
70902;BME280;58548;47.210;8.618;2022-10-16T04:53:32;94254.88;;;20.70;44.37
70902;BME280;58548;47.210;8.618;2022-10-16T04:56:01;94259.56;;;20.62;44.51
70902;BME280;58548;47.210;8.618;2022-10-16T04:58:27;94242.44;;;20.48;44.31
70902;BME280;58548;47.210;8.618;2022-10-16T05:00:55;94253.66;;;20.55;44.48
70902;BME280;58548;47.210;8.618;2022-10-16T05:03:23;94222.03;;;20.26;44.17
70902;BME280;58548;47.210;8.618;2022-10-16T05:05:52;94220.16;;;20.27;44.17
70902;BME280;58548;47.210;8.618;2022-10-16T05:08:20;94242.06;;;20.39;44.05
70902;BME280;58548;47.210;8.618;2022-10-16T05:10:46;94260.94;;;20.43;44.23
70902;BME280;58548;47.210;8.618;2022-10-16T05:13:12;94264.63;;;20.42;44.10
70902;BME280;58548;47.210;8.618;2022-10-16T05:15:38;94249.78;;;20.41;43.98
70902;BME280;58548;47.210;8.618;2022-10-16T05:18:04;94252.91;;;20.38;43.88
70902;BME280;58548;47.210;8.618;2022-10-16T05:20:30;94244.28;;;20.25;43.91
70902;BME280;58548;47.210;8.618;2022-10-16T05:22:56;94208.44;;;20.00;43.92
70902;BME280;58548;47.210;8.618;2022-10-16T05:25:24;94190.31;;;19.92;44.34
70902;BME280;58548;47.210;8.618;2022-10-16T05:27:52;94244.00;;;20.22;43.92
70902;BME280;58548;47.210;8.618;2022-10-16T05:30:19;94203.88;;;19.96;43.65
70902;BME280;58548;47.210;8.618;2022-10-16T05:32:49;94226.31;;;20.10;44.03
70902;BME280;58548;47.210;8.618;2022-10-16T05:35:16;94247.50;;;20.27;43.74
70902;BME280;58548;47.210;8.618;2022-10-16T05:37:45;94216.94;;;20.02;43.76
70902;BME280;58548;47.210;8.618;2022-10-16T05:40:11;94249.63;;;20.08;44.38
70902;BME280;58548;47.210;8.618;2022-10-16T05:42:40;94246.13;;;20.02;43.91
70902;BME280;58548;47.210;8.618;2022-10-16T05:45:09;94205.19;;;19.76;44.19
70902;BME280;58548;47.210;8.618;2022-10-16T05:47:41;94203.19;;;19.66;44.17
70902;BME280;58548;47.210;8.618;2022-10-16T05:50:07;94230.22;;;20.02;44.54
70902;BME280;58548;47.210;8.618;2022-10-16T05:52:33;94261.06;;;20.09;44.43
70902;BME280;58548;47.210;8.618;2022-10-16T05:55:01;94202.16;;;19.67;44.77
70902;BME280;58548;47.210;8.618;2022-10-16T05:57:32;94252.53;;;20.07;45.06
70902;BME280;58548;47.210;8.618;2022-10-16T05:59:57;94253.03;;;20.03;44.74
70902;BME280;58548;47.210;8.618;2022-10-16T06:02:23;94199.81;;;19.71;45.04
70902;BME280;58548;47.210;8.618;2022-10-16T06:04:51;94248.84;;;20.08;45.14
70902;BME280;58548;47.210;8.618;2022-10-16T06:07:20;94260.59;;;20.17;45.32
70902;BME280;58548;47.210;8.618;2022-10-16T06:09:51;94258.28;;;20.21;45.28
70902;BME280;58548;47.210;8.618;2022-10-16T06:12:20;94242.38;;;20.21;45.06
70902;BME280;58548;47.210;8.618;2022-10-16T06:14:46;94264.44;;;20.48;44.43
70902;BME280;58548;47.210;8.618;2022-10-16T06:17:15;94222.81;;;20.04;44.94
70902;BME280;58548;47.210;8.618;2022-10-16T06:19:46;94265.81;;;20.29;44.77
70902;BME280;58548;47.210;8.618;2022-10-16T06:22:16;94225.09;;;20.18;44.89
70902;BME280;58548;47.210;8.618;2022-10-16T06:24:45;94279.75;;;20.63;44.73
70902;BME280;58548;47.210;8.618;2022-10-16T06:27:11;94287.22;;;20.67;45.01
70902;BME280;58548;47.210;8.618;2022-10-16T06:29:42;94243.34;;;20.37;44.62
70902;BME280;58548;47.210;8.618;2022-10-16T06:32:08;94273.88;;;20.61;44.53
70902;BME280;58548;47.210;8.618;2022-10-16T06:34:35;94292.66;;;20.77;44.59
70902;BME280;58548;47.210;8.618;2022-10-16T06:37:01;94275.63;;;20.73;44.96
70902;BME280;58548;47.210;8.618;2022-10-16T06:39:27;94242.25;;;20.55;44.38
70902;BME280;58548;47.210;8.618;2022-10-16T06:41:57;94303.50;;;20.98;44.73
70902;BME280;58548;47.210;8.618;2022-10-16T06:44:23;94246.66;;;20.71;44.79
70902;BME280;58548;47.210;8.618;2022-10-16T06:46:49;94277.16;;;20.91;44.70
70902;BME280;58548;47.210;8.618;2022-10-16T06:49:15;94301.59;;;21.15;43.98
70902;BME280;58548;47.210;8.618;2022-10-16T06:51:46;94308.22;;;21.18;43.94
70902;BME280;58548;47.210;8.618;2022-10-16T06:54:12;94246.00;;;20.81;43.80
70902;BME280;58548;47.210;8.618;2022-10-16T06:56:43;94288.81;;;21.12;43.90
70902;BME280;58548;47.210;8.618;2022-10-16T06:59:10;94313.94;;;21.32;43.77
70902;BME280;58548;47.210;8.618;2022-10-16T07:01:35;94309.81;;;21.46;43.71
70902;BME280;58548;47.210;8.618;2022-10-16T07:04:01;94323.16;;;21.51;43.75
70902;BME280;58548;47.210;8.618;2022-10-16T07:06:32;94322.16;;;21.58;43.77
70902;BME280;58548;47.210;8.618;2022-10-16T07:09:03;94272.00;;;21.34;43.77
70902;BME280;58548;47.210;8.618;2022-10-16T07:11:33;94288.03;;;21.44;43.73
70902;BME280;58548;47.210;8.618;2022-10-16T07:13:59;94328.19;;;21.75;43.86
70902;BME280;58548;47.210;8.618;2022-10-16T07:16:31;94329.56;;;21.83;44.14
70902;BME280;58548;47.210;8.618;2022-10-16T07:18:59;94308.00;;;21.79;44.08
70902;BME280;58548;47.210;8.618;2022-10-16T07:21:30;94338.00;;;22.12;43.41
70902;BME280;58548;47.210;8.618;2022-10-16T07:24:01;94349.25;;;22.20;43.54
70902;BME280;58548;47.210;8.618;2022-10-16T07:26:32;94308.66;;;21.97;43.68
70902;BME280;58548;47.210;8.618;2022-10-16T07:28:59;94354.34;;;22.26;43.78
70902;BME280;58548;47.210;8.618;2022-10-16T07:31:27;94346.94;;;22.34;43.76
70902;BME280;58548;47.210;8.618;2022-10-16T07:33:54;94363.53;;;22.46;43.47
70902;BME280;58548;47.210;8.618;2022-10-16T07:36:22;94317.88;;;22.27;43.68
70902;BME280;58548;47.210;8.618;2022-10-16T07:38:50;94354.59;;;22.68;43.31
70902;BME280;58548;47.210;8.618;2022-10-16T07:41:18;94338.38;;;22.74;42.94
70902;BME280;58548;47.210;8.618;2022-10-16T07:43:52;94309.63;;;22.66;42.62
70902;BME280;58548;47.210;8.618;2022-10-16T07:46:20;94376.13;;;23.19;42.71
70902;BME280;58548;47.210;8.618;2022-10-16T07:48:48;94376.16;;;23.30;42.64
70902;BME280;58548;47.210;8.618;2022-10-16T07:51:19;94274.75;;;22.78;42.46
70902;BME280;58548;47.210;8.618;2022-10-16T07:53:46;94389.56;;;23.61;41.93
70902;BME280;58548;47.210;8.618;2022-10-16T07:56:13;94378.09;;;23.76;42.26
70902;BME280;58548;47.210;8.618;2022-10-16T07:58:41;94329.31;;;23.49;42.26
70902;BME280;58548;47.210;8.618;2022-10-16T08:01:12;94399.50;;;24.07;41.52
70902;BME280;58548;47.210;8.618;2022-10-16T08:03:42;94351.44;;;23.97;41.72
70902;BME280;58548;47.210;8.618;2022-10-16T08:06:09;94406.94;;;24.46;41.19
70902;BME280;58548;47.210;8.618;2022-10-16T08:08:37;94417.59;;;24.62;40.20
70902;BME280;58548;47.210;8.618;2022-10-16T08:11:02;94400.53;;;24.73;39.77
70902;BME280;58548;47.210;8.618;2022-10-16T08:13:31;94408.72;;;24.97;40.31
70902;BME280;58548;47.210;8.618;2022-10-16T08:15:59;94411.66;;;25.01;39.35
70902;BME280;58548;47.210;8.618;2022-10-16T08:18:25;94356.19;;;24.72;39.86
70902;BME280;58548;47.210;8.618;2022-10-16T08:20:58;94418.50;;;25.23;38.96
70902;BME280;58548;47.210;8.618;2022-10-16T08:23:26;94365.72;;;24.99;38.87
70902;BME280;58548;47.210;8.618;2022-10-16T08:25:53;94373.41;;;25.11;38.75
70902;BME280;58548;47.210;8.618;2022-10-16T08:28:21;94428.03;;;25.50;38.94
70902;BME280;58548;47.210;8.618;2022-10-16T08:30:53;94427.47;;;25.58;37.47
70902;BME280;58548;47.210;8.618;2022-10-16T08:33:24;94389.06;;;25.38;37.79
70902;BME280;58548;47.210;8.618;2022-10-16T08:35:51;94426.88;;;25.66;37.05
70902;BME280;58548;47.210;8.618;2022-10-16T08:38:19;94430.38;;;25.67;36.20
70902;BME280;58548;47.210;8.618;2022-10-16T08:40:47;94388.50;;;25.47;36.47
70902;BME280;58548;47.210;8.618;2022-10-16T08:46:34;94441.38;;;25.60;37.11
70902;BME280;58548;47.210;8.618;2022-10-16T08:48:54;94394.22;;;25.19;37.26
70902;BME280;58548;47.210;8.618;2022-10-16T08:54:01;94419.88;;;25.20;36.51
70902;BME280;58548;47.210;8.618;2022-10-16T08:56:30;94445.75;;;25.30;37.00
70902;BME280;58548;47.210;8.618;2022-10-16T08:59:01;94432.69;;;25.18;36.04
70902;BME280;58548;47.210;8.618;2022-10-16T09:01:43;94399.41;;;24.90;36.78
70902;BME280;58548;47.210;8.618;2022-10-16T09:07:04;94335.41;;;25.24;40.11
70902;BME280;58548;47.210;8.618;2022-10-16T09:22:45;94447.56;;;33.10;27.21
70902;BME280;58548;47.210;8.618;2022-10-16T09:25:15;94421.75;;;33.51;25.39
70902;BME280;58548;47.210;8.618;2022-10-16T09:27:50;94407.31;;;33.68;24.98
70902;BME280;58548;47.210;8.618;2022-10-16T09:30:21;94402.97;;;33.97;25.07
70902;BME280;58548;47.210;8.618;2022-10-16T09:32:54;94456.00;;;34.95;24.44
70902;BME280;58548;47.210;8.618;2022-10-16T09:35:40;94458.94;;;35.89;22.89
70902;BME280;58548;47.210;8.618;2022-10-16T09:38:30;94456.75;;;36.77;22.20
70902;BME280;58548;47.210;8.618;2022-10-16T09:41:01;94451.28;;;37.37;20.99
70902;BME280;58548;47.210;8.618;2022-10-16T09:43:40;94454.53;;;38.11;19.78
70902;BME280;58548;47.210;8.618;2022-10-16T09:46:21;94457.53;;;38.84;19.59
70902;BME280;58548;47.210;8.618;2022-10-16T09:48:51;94443.09;;;39.54;19.14
70902;BME280;58548;47.210;8.618;2022-10-16T09:51:24;94454.34;;;40.33;17.41
70902;BME280;58548;47.210;8.618;2022-10-16T09:54:13;94407.84;;;40.70;16.20
70902;BME280;58548;47.210;8.618;2022-10-16T09:56:47;94436.06;;;41.65;15.42
70902;BME280;58548;47.210;8.618;2022-10-16T09:59:25;94454.50;;;42.38;15.18
70902;BME280;58548;47.210;8.618;2022-10-16T10:02:00;94420.09;;;42.81;14.40
70902;BME280;58548;47.210;8.618;2022-10-16T10:04:45;94421.75;;;43.32;12.74
70902;BME280;58548;47.210;8.618;2022-10-16T10:07:30;94451.94;;;44.05;12.74
70902;BME280;58548;47.210;8.618;2022-10-16T10:10:05;94438.84;;;44.34;12.01
70902;BME280;58548;47.210;8.618;2022-10-16T10:12:35;94462.59;;;44.88;11.60
70902;BME280;58548;47.210;8.618;2022-10-16T10:15:12;94410.25;;;44.88;11.77
70902;BME280;58548;47.210;8.618;2022-10-16T10:18:14;94460.22;;;45.46;12.05
70902;BME280;58548;47.210;8.618;2022-10-16T10:20:44;94458.69;;;45.84;11.99
70902;BME280;58548;47.210;8.618;2022-10-16T10:23:23;94436.84;;;46.04;12.32
70902;BME280;58548;47.210;8.618;2022-10-16T10:36:48;94411.91;;;45.73;11.28
70902;BME280;58548;47.210;8.618;2022-10-16T10:39:34;94457.66;;;45.70;11.31
70902;BME280;58548;47.210;8.618;2022-10-16T10:42:18;94452.31;;;45.94;12.12
70902;BME280;58548;47.210;8.618;2022-10-16T10:50:25;94442.25;;;45.73;11.89
70902;BME280;58548;47.210;8.618;2022-10-16T10:53:07;94442.16;;;45.38;11.00
70902;BME280;58548;47.210;8.618;2022-10-16T11:01:50;94433.47;;;46.20;10.25
70902;BME280;58548;47.210;8.618;2022-10-16T11:07:52;94395.06;;;45.98;10.43
70902;BME280;58548;47.210;8.618;2022-10-16T11:10:24;94428.72;;;46.24;10.54
70902;BME280;58548;47.210;8.618;2022-10-16T11:13:09;94427.13;;;46.27;10.18
70902;BME280;58548;47.210;8.618;2022-10-16T11:15:40;94389.88;;;46.07;11.14
70902;BME280;58548;47.210;8.618;2022-10-16T11:20:56;94431.91;;;46.22;10.64
70902;BME280;58548;47.210;8.618;2022-10-16T11:26:05;94416.66;;;45.72;10.95
70902;BME280;58548;47.210;8.618;2022-10-16T11:28:49;94406.38;;;45.35;11.31
70902;BME280;58548;47.210;8.618;2022-10-16T11:34:00;94417.56;;;45.09;12.55
70902;BME280;58548;47.210;8.618;2022-10-16T11:41:35;94410.50;;;45.05;11.69
70902;BME280;58548;47.210;8.618;2022-10-16T11:53:00;94401.84;;;45.06;11.81
70902;BME280;58548;47.210;8.618;2022-10-16T11:55:37;94394.44;;;44.96;12.30
70902;BME280;58548;47.210;8.618;2022-10-16T12:04:03;94379.75;;;44.57;12.77
70902;BME280;58548;47.210;8.618;2022-10-16T12:06:46;94361.72;;;44.38;12.37
70902;BME280;58548;47.210;8.618;2022-10-16T12:09:25;94378.66;;;44.33;12.64
70902;BME280;58548;47.210;8.618;2022-10-16T12:11:55;94388.06;;;44.46;11.08
70902;BME280;58548;47.210;8.618;2022-10-16T12:17:23;94406.66;;;44.20;11.16
70902;BME280;58548;47.210;8.618;2022-10-16T12:20:18;94402.84;;;43.71;11.73
70902;BME280;58548;47.210;8.618;2022-10-16T12:23:02;94396.59;;;43.70;11.14
70902;BME280;58548;47.210;8.618;2022-10-16T12:30:32;94379.31;;;43.48;11.76
70902;BME280;58548;47.210;8.618;2022-10-16T12:33:31;94340.09;;;43.22;11.64
70902;BME280;58548;47.210;8.618;2022-10-16T12:36:04;94329.88;;;43.08;12.04
70902;BME280;58548;47.210;8.618;2022-10-16T12:38:44;94382.03;;;43.62;11.65
70902;BME280;58548;47.210;8.618;2022-10-16T12:41:11;94374.94;;;43.79;11.75
70902;BME280;58548;47.210;8.618;2022-10-16T12:43:40;94383.91;;;44.02;11.70
70902;BME280;58548;47.210;8.618;2022-10-16T12:48:38;94380.75;;;44.07;10.31
70902;BME280;58548;47.210;8.618;2022-10-16T12:56:41;94385.53;;;43.84;11.41
70902;BME280;58548;47.210;8.618;2022-10-16T13:07:49;94383.75;;;44.45;11.27
70902;BME280;58548;47.210;8.618;2022-10-16T13:21:53;94396.50;;;43.95;11.57
70902;BME280;58548;47.210;8.618;2022-10-16T13:30:01;94360.44;;;43.64;11.36
70902;BME280;58548;47.210;8.618;2022-10-16T13:32:28;94353.38;;;43.56;11.72
70902;BME280;58548;47.210;8.618;2022-10-16T13:34:54;94345.91;;;43.53;12.85
70902;BME280;58548;47.210;8.618;2022-10-16T13:37:23;94382.41;;;43.82;13.33
70902;BME280;58548;47.210;8.618;2022-10-16T13:39:49;94383.16;;;43.94;13.12
70902;BME280;58548;47.210;8.618;2022-10-16T13:42:23;94360.41;;;43.79;13.36
70902;BME280;58548;47.210;8.618;2022-10-16T13:44:52;94393.78;;;43.84;13.50
70902;BME280;58548;47.210;8.618;2022-10-16T13:47:29;94389.44;;;43.87;13.65
70902;BME280;58548;47.210;8.618;2022-10-16T13:50:10;94388.31;;;43.81;14.00
70902;BME280;58548;47.210;8.618;2022-10-16T13:52:41;94362.81;;;43.55;13.51
70902;BME280;58548;47.210;8.618;2022-10-16T13:55:14;94372.63;;;43.52;13.70
70902;BME280;58548;47.210;8.618;2022-10-16T13:57:42;94406.81;;;43.44;13.88
70902;BME280;58548;47.210;8.618;2022-10-16T14:00:28;94409.97;;;43.32;13.68
70902;BME280;58548;47.210;8.618;2022-10-16T14:03:02;94404.44;;;43.06;14.03
70902;BME280;58548;47.210;8.618;2022-10-16T14:05:31;94408.72;;;42.78;13.95
70902;BME280;58548;47.210;8.618;2022-10-16T14:07:58;94406.69;;;42.43;14.49
70902;BME280;58548;47.210;8.618;2022-10-16T14:10:28;94352.72;;;41.80;15.09
70902;BME280;58548;47.210;8.618;2022-10-16T14:13:05;94365.13;;;41.56;15.20
70902;BME280;58548;47.210;8.618;2022-10-16T14:15:35;94357.50;;;41.27;15.65
70902;BME280;58548;47.210;8.618;2022-10-16T14:18:03;94358.91;;;41.07;15.31
70902;BME280;58548;47.210;8.618;2022-10-16T14:20:33;94392.59;;;41.11;15.51
70902;BME280;58548;47.210;8.618;2022-10-16T14:23:18;94401.81;;;40.95;15.12
70902;BME280;58548;47.210;8.618;2022-10-16T14:25:45;94410.56;;;40.67;15.55
70902;BME280;58548;47.210;8.618;2022-10-16T14:28:22;94370.25;;;39.95;16.26
70902;BME280;58548;47.210;8.618;2022-10-16T14:30:57;94380.75;;;39.63;16.37
70902;BME280;58548;47.210;8.618;2022-10-16T14:33:33;94407.72;;;39.38;16.96
70902;BME280;58548;47.210;8.618;2022-10-16T14:36:15;94404.28;;;38.94;17.57
70902;BME280;58548;47.210;8.618;2022-10-16T14:38:58;94365.34;;;38.35;17.80
70902;BME280;58548;47.210;8.618;2022-10-16T14:41:27;94413.19;;;38.28;18.18
70902;BME280;58548;47.210;8.618;2022-10-16T14:44:06;94361.94;;;37.79;18.29
70902;BME280;58548;47.210;8.618;2022-10-16T14:46:39;94399.78;;;37.64;19.00
70902;BME280;58548;47.210;8.618;2022-10-16T14:51:41;94364.50;;;36.88;19.23
70902;BME280;58548;47.210;8.618;2022-10-16T14:54:16;94308.13;;;36.24;19.74
70902;BME280;58548;47.210;8.618;2022-10-16T14:56:51;94411.81;;;36.51;20.09
70902;BME280;58548;47.210;8.618;2022-10-16T14:59:26;94413.16;;;36.16;21.22
70902;BME280;58548;47.210;8.618;2022-10-16T15:01:53;94366.63;;;35.65;21.00
70902;BME280;58548;47.210;8.618;2022-10-16T15:04:21;94418.78;;;35.70;21.38
70902;BME280;58548;47.210;8.618;2022-10-16T15:06:48;94386.34;;;35.24;21.40
70902;BME280;58548;47.210;8.618;2022-10-16T15:09:14;94420.72;;;35.20;21.30
70902;BME280;58548;47.210;8.618;2022-10-16T15:11:41;94382.66;;;34.58;21.88
70902;BME280;58548;47.210;8.618;2022-10-16T15:14:13;94431.84;;;34.69;21.99
70902;BME280;58548;47.210;8.618;2022-10-16T15:16:44;94441.66;;;34.40;22.35
70902;BME280;58548;47.210;8.618;2022-10-16T15:19:11;94431.25;;;34.08;22.75
70902;BME280;58548;47.210;8.618;2022-10-16T15:21:41;94385.19;;;33.36;23.67
70902;BME280;58548;47.210;8.618;2022-10-16T15:24:12;94432.53;;;33.60;23.96
70902;BME280;58548;47.210;8.618;2022-10-16T15:26:41;94384.88;;;33.07;24.46
70902;BME280;58548;47.210;8.618;2022-10-16T15:29:14;94438.59;;;33.18;24.00
70902;BME280;58548;47.210;8.618;2022-10-16T15:31:40;94374.69;;;32.57;23.81
70902;BME280;58548;47.210;8.618;2022-10-16T15:34:10;94443.38;;;32.82;25.14